createdAt,value
2017-08-21T00:02:03.467Z,3.60
2017-08-21T00:04:32.307Z,4.27
2017-08-21T00:07:00.530Z,4.30
2017-08-21T00:09:29.366Z,3.93
2017-08-21T00:11:57.435Z,4.17
2017-08-21T00:14:25.499Z,4.23
2017-08-21T00:16:53.559Z,4.70
2017-08-21T00:19:21.608Z,4.20
2017-08-21T00:21:50.457Z,4.30
2017-08-21T00:24:18.527Z,4.67
2017-08-21T00:26:46.597Z,5.00
2017-08-21T00:29:14.655Z,3.87
2017-08-21T00:31:42.724Z,3.63
2017-08-21T00:34:11.343Z,4.60
2017-08-21T00:36:39.415Z,3.73
2017-08-21T00:39:08.458Z,4.57
2017-08-21T00:41:36.527Z,4.17
2017-08-21T00:44:04.594Z,4.70
2017-08-21T00:46:32.648Z,4.00
2017-08-21T00:49:01.494Z,3.87
2017-08-21T00:51:29.535Z,3.93
2017-08-21T00:53:57.623Z,3.80
2017-08-21T00:56:25.704Z,4.87
2017-08-21T00:58:53.759Z,4.37
2017-08-21T01:01:21.834Z,4.20
2017-08-21T01:03:49.920Z,4.77
2017-08-21T01:06:18.003Z,4.73
2017-08-21T01:08:46.074Z,4.47
2017-08-21T01:11:14.124Z,4.63
2017-08-21T01:13:42.190Z,5.33
2017-08-21T01:16:10.473Z,4.70
2017-08-21T01:18:38.546Z,4.93
2017-08-21T01:21:06.616Z,4.53
2017-08-21T01:23:34.687Z,5.37
2017-08-21T01:26:02.756Z,5.70
2017-08-21T01:28:30.824Z,5.43
2017-08-21T01:30:58.895Z,5.37
2017-08-21T01:33:26.968Z,4.97
2017-08-21T01:35:55.040Z,5.00
2017-08-21T01:38:23.112Z,4.30
2017-08-21T01:40:51.219Z,5.17
2017-08-21T01:43:20.057Z,5.97
2017-08-21T01:45:48.120Z,5.00
2017-08-21T01:48:16.202Z,4.67
2017-08-21T01:50:44.248Z,4.83
2017-08-21T01:53:12.294Z,4.87
2017-08-21T01:55:41.147Z,4.70
2017-08-21T01:58:09.208Z,4.40
2017-08-21T02:00:37.284Z,5.07
2017-08-21T02:03:05.356Z,4.70
2017-08-21T02:05:33.420Z,5.23
2017-08-21T02:08:01.466Z,4.90
2017-08-21T02:10:29.562Z,4.77
2017-08-21T02:12:57.637Z,5.47
2017-08-21T02:15:25.705Z,5.70
2017-08-21T02:17:53.770Z,5.07
2017-08-21T02:20:21.847Z,4.80
2017-08-21T02:22:49.914Z,5.73
2017-08-21T02:25:17.975Z,5.30
2017-08-21T02:27:46.057Z,6.20
2017-08-21T02:30:14.102Z,6.77
2017-08-21T02:32:42.199Z,6.47
2017-08-21T02:35:10.247Z,5.20
2017-08-21T02:37:38.307Z,6.27
2017-08-21T02:40:06.379Z,5.97
2017-08-21T02:42:34.447Z,5.87
2017-08-21T02:45:02.527Z,7.00
2017-08-21T02:47:30.585Z,5.93
2017-08-21T02:49:58.672Z,6.87
2017-08-21T02:52:26.722Z,5.30
2017-08-21T02:54:54.806Z,5.57
2017-08-21T02:57:22.882Z,4.93
2017-08-21T02:59:50.942Z,6.63
2017-08-21T03:02:18.990Z,5.90
2017-08-21T03:04:47.833Z,5.50
2017-08-21T03:07:15.932Z,5.63
2017-08-21T03:09:43.990Z,6.03
2017-08-21T03:12:12.066Z,6.13
2017-08-21T03:14:40.135Z,5.57
2017-08-21T03:17:08.195Z,6.13
2017-08-21T03:19:36.282Z,6.10
2017-08-21T03:22:04.415Z,6.43
2017-08-21T03:24:32.464Z,6.77
2017-08-21T03:27:00.538Z,6.07
2017-08-21T03:29:28.598Z,5.73
2017-08-21T03:31:57.427Z,6.40
2017-08-21T03:34:25.499Z,6.13
2017-08-21T03:36:53.555Z,6.43
2017-08-21T03:39:21.619Z,6.73
2017-08-21T03:41:49.687Z,6.23
2017-08-21T03:44:17.755Z,6.40
2017-08-21T03:46:45.833Z,6.10
2017-08-21T03:49:13.930Z,6.80
2017-08-21T03:51:41.986Z,6.40
2017-08-21T03:54:10.066Z,6.40
2017-08-21T03:56:38.129Z,6.33
2017-08-21T03:59:06.185Z,7.83
2017-08-21T04:01:34.253Z,6.27
2017-08-21T04:04:02.307Z,6.70
2017-08-21T04:06:30.378Z,5.90
2017-08-21T04:08:58.483Z,6.83
2017-08-21T04:11:26.562Z,7.00
2017-08-21T04:13:54.631Z,6.93
2017-08-21T04:16:22.698Z,7.37
2017-08-21T04:18:50.784Z,8.40
2017-08-21T04:21:18.844Z,7.60
2017-08-21T04:23:46.912Z,6.80
2017-08-21T04:26:14.960Z,8.33
2017-08-21T04:28:43.044Z,7.20
2017-08-21T04:31:11.111Z,6.87
2017-08-21T04:33:39.171Z,7.80
2017-08-21T04:36:07.234Z,7.13
2017-08-21T04:38:35.303Z,7.50
2017-08-21T04:41:03.362Z,7.90
2017-08-21T04:43:31.437Z,8.10
2017-08-21T04:45:59.511Z,8.33
2017-08-21T04:48:27.570Z,7.40
2017-08-21T04:50:55.671Z,7.83
2017-08-21T04:53:23.719Z,8.73
2017-08-21T04:55:51.795Z,8.33
2017-08-21T04:58:19.859Z,8.07
2017-08-21T05:00:47.930Z,8.03
2017-08-21T05:03:15.993Z,8.03
2017-08-21T05:05:44.066Z,8.77
2017-08-21T05:08:12.123Z,8.90
2017-08-21T05:10:40.198Z,9.07
2017-08-21T05:13:08.263Z,9.10
2017-08-21T05:15:36.346Z,8.50
2017-08-21T05:18:04.384Z,8.17
2017-08-21T05:20:33.297Z,8.80
2017-08-21T05:23:01.331Z,8.03
2017-08-21T05:25:30.162Z,7.40
2017-08-21T05:27:58.230Z,8.43
2017-08-21T05:30:26.283Z,7.80
2017-08-21T05:32:54.365Z,7.67
2017-08-21T05:35:22.434Z,7.60
2017-08-21T05:37:50.534Z,8.47
2017-08-21T05:40:18.617Z,8.17
2017-08-21T05:42:46.679Z,8.23
2017-08-21T05:45:14.741Z,8.40
2017-08-21T05:47:42.809Z,8.23
2017-08-21T05:50:10.870Z,6.30
2017-08-21T05:52:38.953Z,7.43
2017-08-21T05:55:07.015Z,7.70
2017-08-21T05:57:35.099Z,7.67
2017-08-21T06:00:03.168Z,9.37
2017-08-21T06:02:31.238Z,9.10
2017-08-21T06:04:59.325Z,8.03
2017-08-21T06:07:27.377Z,8.60
2017-08-21T06:09:55.499Z,7.13
2017-08-21T06:12:24.347Z,8.10
2017-08-21T06:14:52.407Z,8.10
2017-08-21T06:17:20.911Z,8.40
2017-08-21T06:19:48.971Z,8.63
2017-08-21T06:22:17.063Z,7.20
2017-08-21T06:24:45.143Z,8.83
2017-08-21T06:27:13.579Z,8.70
2017-08-21T06:29:41.668Z,8.83
2017-08-21T06:32:09.717Z,8.20
2017-08-21T06:34:37.826Z,8.77
2017-08-21T06:37:05.964Z,7.90
2017-08-21T06:39:34.746Z,7.63
2017-08-21T06:42:02.830Z,7.97
2017-08-21T06:44:30.893Z,8.07
2017-08-21T06:46:59.060Z,7.40
2017-08-21T06:49:27.090Z,6.53
2017-08-21T06:51:55.940Z,6.70
2017-08-21T06:54:24.012Z,7.37
2017-08-21T06:56:52.072Z,6.30
2017-08-21T06:59:20.131Z,5.73
2017-08-21T07:01:48.205Z,8.10
2017-08-21T07:04:16.263Z,8.53
2017-08-21T07:06:45.117Z,6.70
2017-08-21T07:09:13.200Z,7.23
2017-08-21T07:11:41.261Z,7.03
2017-08-21T07:14:10.171Z,5.80
2017-08-21T07:16:38.232Z,7.77
2017-08-21T07:19:06.450Z,6.30
2017-08-21T07:21:34.506Z,6.87
2017-08-21T07:24:02.570Z,7.33
2017-08-21T07:26:31.406Z,8.13
2017-08-21T07:28:59.471Z,8.50
2017-08-21T07:31:27.602Z,7.20
2017-08-21T07:33:56.424Z,6.53
2017-08-21T07:36:24.483Z,5.63
2017-08-21T07:38:52.549Z,6.27
2017-08-21T07:41:20.604Z,6.03
2017-08-21T07:43:49.490Z,5.50
2017-08-21T07:46:18.326Z,6.57
2017-08-21T07:48:46.400Z,5.60
2017-08-21T07:51:15.387Z,5.10
2017-08-21T07:53:43.448Z,5.23
2017-08-21T07:56:11.515Z,6.10
2017-08-21T07:58:39.590Z,5.10
2017-08-21T08:01:07.666Z,4.30
2017-08-21T08:03:35.738Z,4.90
2017-08-21T08:06:04.685Z,4.20
2017-08-21T08:08:32.744Z,4.73
2017-08-21T08:11:00.819Z,6.30
2017-08-21T08:13:28.886Z,4.40
2017-08-21T08:15:56.952Z,4.43
2017-08-21T08:18:25.042Z,5.13
2017-08-21T08:20:53.141Z,4.03
2017-08-21T08:23:21.170Z,4.60
2017-08-21T08:25:49.264Z,4.60
2017-08-21T08:28:17.336Z,4.43
2017-08-21T08:30:45.396Z,3.40
2017-08-21T08:33:13.684Z,4.23
2017-08-21T08:35:41.723Z,4.80
2017-08-21T08:38:09.815Z,5.07
2017-08-21T08:40:37.883Z,3.73
2017-08-21T08:43:05.958Z,4.17
2017-08-21T08:45:34.558Z,4.67
2017-08-21T08:48:02.636Z,4.27
2017-08-21T08:50:30.698Z,4.20
2017-08-21T08:52:58.774Z,4.03
2017-08-21T08:55:26.830Z,4.10
2017-08-21T08:57:54.919Z,3.23
2017-08-21T09:00:22.967Z,3.40
2017-08-21T09:02:51.058Z,3.13
2017-08-21T09:05:19.130Z,3.00
2017-08-21T09:07:47.199Z,3.43
2017-08-21T09:10:15.271Z,3.57
2017-08-21T09:12:43.351Z,3.17
2017-08-21T09:15:11.435Z,3.80
2017-08-21T09:17:40.256Z,3.97
2017-08-21T09:20:08.323Z,4.37
2017-08-21T09:22:36.384Z,5.60
2017-08-21T09:25:05.239Z,5.60
2017-08-21T09:27:33.310Z,5.60
2017-08-21T09:30:01.380Z,5.83
2017-08-21T09:32:30.465Z,4.33
2017-08-21T09:34:58.499Z,5.30
2017-08-21T09:37:26.558Z,4.83
2017-08-21T09:39:54.715Z,4.47
2017-08-21T09:42:23.555Z,4.03
2017-08-21T09:44:51.613Z,3.17
2017-08-21T09:47:19.691Z,3.07
2017-08-21T09:49:47.767Z,3.40
2017-08-21T09:52:16.472Z,5.50
2017-08-21T09:54:44.568Z,5.73
2017-08-21T09:57:12.631Z,5.70
2017-08-21T09:59:41.458Z,5.50
2017-08-21T10:02:09.548Z,5.30
2017-08-21T10:04:37.609Z,5.20
2017-08-21T10:07:05.850Z,4.97
2017-08-21T10:09:34.663Z,5.10
2017-08-21T10:12:02.778Z,4.10
2017-08-21T10:14:59.708Z,4.47
2017-08-21T10:17:27.778Z,4.90
2017-08-21T10:19:55.843Z,4.97
2017-08-21T10:22:23.938Z,3.60
2017-08-21T10:24:52.010Z,3.90
2017-08-21T10:27:20.039Z,3.40
2017-08-21T10:29:48.111Z,3.20
2017-08-21T10:32:16.165Z,3.23
2017-08-21T10:34:44.250Z,2.63
2017-08-21T10:37:12.313Z,2.90
2017-08-21T10:39:40.394Z,3.33
2017-08-21T10:42:08.467Z,3.37
2017-08-21T10:44:37.507Z,3.90
2017-08-21T10:47:05.599Z,4.07
2017-08-21T10:49:34.541Z,3.80
2017-08-21T10:52:02.588Z,4.77
2017-08-21T10:54:30.663Z,6.53
2017-08-21T10:56:58.825Z,5.03
2017-08-21T10:59:26.854Z,5.10
2017-08-21T11:01:54.918Z,3.80
2017-08-21T11:04:22.991Z,4.20
2017-08-21T11:06:51.047Z,3.20
2017-08-21T11:09:19.147Z,3.63
2017-08-21T11:11:47.192Z,2.97
2017-08-21T11:14:15.258Z,3.00
2017-08-21T11:16:43.323Z,3.20
2017-08-21T11:19:11.382Z,3.80
2017-08-21T11:21:39.452Z,3.60
2017-08-21T11:24:07.524Z,3.47
2017-08-21T11:26:36.176Z,3.80
2017-08-21T11:29:04.253Z,3.33
2017-08-21T11:31:32.308Z,3.90
2017-08-21T11:34:00.384Z,4.23
2017-08-21T11:36:28.466Z,3.80
2017-08-21T11:38:56.522Z,2.93
2017-08-21T11:41:24.594Z,3.60
2017-08-21T11:43:52.677Z,3.20
2017-08-21T11:46:20.755Z,4.07
2017-08-21T11:48:48.814Z,3.77
2017-08-21T11:51:16.880Z,4.00
2017-08-21T11:53:44.965Z,4.00
2017-08-21T11:56:13.040Z,4.00
2017-08-21T11:58:41.110Z,4.67
2017-08-21T12:01:09.170Z,3.57
2017-08-21T12:03:37.240Z,3.67
2017-08-21T12:06:05.319Z,4.70
2017-08-21T12:08:33.368Z,4.20
2017-08-21T12:11:01.460Z,4.37
2017-08-21T12:13:29.510Z,3.57
2017-08-21T12:15:57.562Z,3.80
2017-08-21T12:18:25.639Z,4.20
2017-08-21T12:20:53.722Z,4.50
2017-08-21T12:23:21.884Z,4.53
2017-08-21T12:25:50.993Z,4.53
2017-08-21T12:28:19.047Z,4.13
2017-08-21T12:30:47.170Z,4.27
2017-08-21T12:33:15.244Z,5.00
2017-08-21T12:35:43.298Z,4.43
2017-08-21T12:38:11.390Z,4.40
2017-08-21T12:40:39.427Z,4.87
2017-08-21T12:43:07.496Z,4.80
2017-08-21T12:45:35.631Z,4.13
2017-08-21T12:48:03.666Z,4.60
2017-08-21T12:50:31.732Z,3.90
2017-08-21T12:52:59.793Z,4.10
2017-08-21T12:55:27.858Z,4.53
2017-08-21T12:57:55.981Z,4.10
2017-08-21T13:00:24.015Z,3.60
2017-08-21T13:02:52.075Z,3.50
2017-08-21T13:05:20.158Z,3.47
2017-08-21T13:07:48.221Z,3.80
2017-08-21T13:10:17.528Z,3.50
2017-08-21T13:12:45.599Z,3.47
2017-08-21T13:15:13.660Z,3.17
2017-08-21T13:17:41.735Z,3.77
2017-08-21T13:20:09.794Z,3.77
2017-08-21T13:22:37.870Z,3.77
2017-08-21T13:25:05.927Z,2.80
2017-08-21T13:27:34.008Z,2.90
2017-08-21T13:30:02.069Z,3.60
2017-08-21T13:32:30.148Z,2.80
2017-08-21T13:34:58.211Z,3.37
2017-08-21T13:37:26.287Z,3.50
2017-08-21T13:39:54.355Z,3.27
2017-08-21T13:42:22.399Z,3.80
2017-08-21T13:44:50.453Z,4.83
2017-08-21T13:47:18.522Z,4.80
2017-08-21T13:49:46.602Z,3.43
2017-08-21T13:52:14.827Z,3.60
2017-08-21T13:54:42.887Z,4.20
2017-08-21T13:57:10.971Z,3.13
2017-08-21T13:59:39.050Z,3.70
2017-08-21T14:02:07.120Z,3.00
2017-08-21T14:04:35.266Z,3.37
2017-08-21T14:07:03.317Z,3.07
2017-08-21T14:09:31.410Z,3.37
2017-08-21T14:11:59.479Z,4.03
2017-08-21T14:14:27.546Z,3.47
2017-08-21T14:16:55.643Z,3.97
2017-08-21T14:19:23.727Z,3.93
2017-08-21T14:21:51.781Z,3.60
2017-08-21T14:24:19.863Z,3.40
2017-08-21T14:26:47.908Z,2.93
2017-08-21T14:29:15.962Z,2.90
2017-08-21T14:31:44.027Z,3.93
2017-08-21T14:34:12.086Z,4.10
2017-08-21T14:36:40.163Z,3.60
2017-08-21T14:39:08.253Z,4.63
2017-08-21T14:41:36.304Z,3.83
2017-08-21T14:44:04.390Z,3.70
2017-08-21T14:46:32.464Z,4.10
2017-08-21T14:49:00.534Z,3.97
2017-08-21T14:51:28.604Z,4.10
2017-08-21T14:53:57.325Z,4.10
2017-08-21T14:56:25.374Z,3.80
2017-08-21T14:58:53.471Z,4.07
2017-08-21T15:01:21.546Z,4.00
2017-08-21T15:03:49.651Z,4.67
2017-08-21T15:06:17.732Z,3.93
2017-08-21T15:08:45.831Z,4.50
2017-08-21T15:11:13.884Z,4.10
2017-08-21T15:13:41.959Z,3.43
2017-08-21T15:16:10.011Z,3.40
2017-08-21T15:18:38.922Z,3.43
2017-08-21T15:21:07.002Z,3.53
2017-08-21T15:23:35.059Z,4.27
2017-08-21T15:26:03.119Z,4.00
2017-08-21T15:28:31.226Z,3.60
2017-08-21T15:30:59.275Z,4.00
2017-08-21T15:33:27.335Z,3.90
2017-08-21T15:35:55.500Z,3.67
2017-08-21T15:38:23.558Z,4.17
2017-08-21T15:40:51.615Z,3.80
2017-08-21T15:43:19.711Z,4.03
2017-08-21T15:45:47.760Z,3.33
2017-08-21T15:48:15.822Z,3.43
2017-08-21T15:50:43.895Z,3.13
2017-08-21T15:53:11.985Z,3.50
2017-08-21T15:55:40.052Z,4.13
2017-08-21T15:58:08.106Z,3.70
2017-08-21T16:00:36.198Z,3.90
2017-08-21T16:03:04.253Z,4.00
2017-08-21T16:05:32.326Z,4.47
2017-08-21T16:08:00.396Z,5.10
2017-08-21T16:10:28.447Z,5.10
2017-08-21T16:12:56.526Z,4.83
2017-08-21T16:15:24.593Z,3.60
2017-08-21T16:17:52.659Z,4.80
2017-08-21T16:20:20.695Z,4.07
2017-08-21T16:22:48.764Z,4.20
2017-08-21T16:25:16.860Z,4.13
2017-08-21T16:27:44.954Z,3.60
2017-08-21T16:30:13.040Z,3.90
2017-08-21T16:32:41.142Z,4.33
2017-08-21T16:35:09.202Z,5.20
2017-08-21T16:37:37.518Z,5.40
2017-08-21T16:40:05.591Z,4.07
2017-08-21T16:42:33.639Z,4.13
2017-08-21T16:45:01.708Z,4.30
2017-08-21T16:47:29.807Z,3.50
2017-08-21T16:49:58.562Z,3.40
2017-08-21T16:52:26.649Z,3.73
2017-08-21T16:54:54.719Z,3.93
2017-08-21T16:57:22.878Z,3.70
2017-08-21T16:59:50.979Z,5.50
2017-08-21T17:02:19.064Z,3.50
2017-08-21T17:04:47.122Z,3.67
2017-08-21T17:07:15.216Z,4.00
2017-08-21T17:09:43.274Z,4.40
2017-08-21T17:12:11.318Z,3.70
2017-08-21T17:14:39.406Z,3.70
2017-08-21T17:17:07.487Z,3.30
2017-08-21T17:19:35.669Z,3.67
2017-08-21T17:22:03.745Z,3.70
2017-08-21T17:24:31.810Z,3.73
2017-08-21T17:26:59.947Z,3.73
2017-08-21T17:29:28.015Z,4.00
2017-08-21T17:31:56.120Z,3.27
2017-08-21T17:34:24.168Z,3.50
2017-08-21T17:36:52.255Z,3.67
2017-08-21T17:39:20.329Z,3.70
2017-08-21T17:41:50.088Z,3.93
2017-08-21T17:44:18.668Z,3.30
2017-08-21T17:46:46.804Z,3.40
2017-08-21T17:49:14.870Z,4.10
2017-08-21T17:51:42.953Z,4.10
2017-08-21T17:54:11.010Z,4.17
2017-08-21T17:56:39.827Z,3.80
2017-08-21T17:59:07.945Z,3.73
2017-08-21T18:01:35.989Z,3.60
2017-08-21T18:04:04.041Z,3.30
2017-08-21T18:06:32.136Z,4.07
2017-08-21T18:09:00.191Z,3.80
2017-08-21T18:11:28.285Z,3.80
2017-08-21T18:13:56.349Z,3.70
2017-08-21T18:16:24.403Z,4.10
2017-08-21T18:18:52.476Z,3.63
2017-08-21T18:21:20.561Z,3.90
2017-08-21T18:23:48.637Z,4.13
2017-08-21T18:26:16.714Z,4.67
2017-08-21T18:28:44.795Z,3.93
2017-08-21T18:31:12.889Z,3.80
2017-08-21T18:33:41.073Z,4.17
2017-08-21T18:36:09.124Z,3.80
2017-08-21T18:38:37.162Z,4.43
2017-08-21T18:41:05.251Z,3.87
2017-08-21T18:43:33.312Z,4.03
2017-08-21T18:46:01.370Z,4.17
2017-08-21T18:48:29.460Z,4.00
2017-08-21T18:50:59.016Z,3.83
2017-08-21T18:53:27.190Z,4.47
2017-08-21T18:55:55.264Z,4.33
2017-08-21T18:58:23.373Z,4.43
2017-08-21T19:00:51.484Z,6.10
2017-08-21T19:03:20.112Z,8.40
2017-08-21T19:05:48.181Z,4.53
2017-08-21T19:08:16.258Z,5.20
2017-08-21T19:10:44.322Z,4.90
2017-08-21T19:13:12.416Z,5.07
2017-08-21T19:15:40.484Z,5.87
2017-08-21T19:18:08.562Z,5.57
2017-08-21T19:20:36.689Z,4.67
2017-08-21T19:23:04.750Z,5.00
2017-08-21T19:25:32.831Z,4.40
2017-08-21T19:28:00.927Z,4.70
2017-08-21T19:30:28.996Z,5.60
2017-08-21T19:32:57.076Z,5.00
2017-08-21T19:35:25.510Z,5.00
2017-08-21T19:37:53.549Z,4.67
2017-08-21T19:40:21.612Z,4.90
2017-08-21T19:42:49.667Z,5.80
2017-08-21T19:45:17.781Z,5.07
2017-08-21T19:47:45.872Z,6.10
2017-08-21T19:50:13.935Z,5.60
2017-08-21T19:52:42.014Z,5.83
2017-08-21T19:55:10.118Z,6.50
2017-08-21T19:57:38.159Z,4.90
2017-08-21T20:00:06.260Z,6.10
2017-08-21T20:02:34.325Z,6.20
2017-08-21T20:05:02.410Z,5.53
2017-08-21T20:07:30.476Z,6.27
2017-08-21T20:09:58.720Z,6.47
2017-08-21T20:12:26.766Z,6.00
2017-08-21T20:14:54.843Z,6.13
2017-08-21T20:17:22.944Z,7.13
2017-08-21T20:19:51.052Z,6.40
2017-08-21T20:22:19.187Z,7.67
2017-08-21T20:24:47.263Z,7.00
2017-08-21T20:27:15.342Z,6.50
2017-08-21T20:29:43.440Z,7.60
2017-08-21T20:32:11.484Z,7.13
2017-08-21T20:34:39.579Z,7.00
2017-08-21T20:37:07.631Z,8.40
2017-08-21T20:39:35.692Z,12.77
2017-08-21T20:42:03.771Z,8.63
2017-08-21T20:44:31.842Z,7.17
2017-08-21T20:46:59.936Z,7.67
2017-08-21T20:49:28.031Z,8.30
2017-08-21T20:51:56.107Z,8.00
2017-08-21T20:54:24.168Z,8.27
2017-08-21T20:56:52.242Z,7.50
2017-08-21T20:59:20.978Z,7.90
2017-08-21T21:01:49.040Z,7.33
2017-08-21T21:04:17.135Z,8.33
2017-08-21T21:06:45.203Z,8.53
2017-08-21T21:09:13.300Z,7.60
2017-08-21T21:11:41.394Z,8.13
2017-08-21T21:14:09.455Z,9.50
2017-08-21T21:16:37.534Z,9.00
2017-08-21T21:19:05.611Z,8.77
2017-08-21T21:21:34.609Z,8.63
2017-08-21T21:24:02.659Z,9.47
2017-08-21T21:26:30.739Z,9.83
2017-08-21T21:28:58.812Z,11.43
2017-08-21T21:31:26.900Z,10.40
2017-08-21T21:33:55.097Z,11.23
2017-08-21T21:36:23.139Z,11.03
2017-08-21T21:38:51.299Z,11.10
2017-08-21T21:41:19.363Z,11.67
2017-08-21T21:43:48.427Z,15.70
2017-08-21T21:46:16.521Z,11.30
2017-08-21T21:48:44.604Z,12.20
2017-08-21T21:51:12.671Z,12.10
2017-08-21T21:53:41.482Z,11.23
2017-08-21T21:56:09.561Z,10.17
2017-08-21T21:58:37.642Z,11.40
2017-08-21T22:01:06.487Z,11.20
2017-08-21T22:03:34.542Z,11.23
2017-08-21T22:06:02.630Z,10.43
2017-08-21T22:08:30.709Z,11.20
2017-08-21T22:10:58.851Z,11.37
2017-08-21T22:13:26.963Z,11.40
2017-08-21T22:15:55.068Z,10.80
2017-08-21T22:18:23.134Z,12.00
2017-08-21T22:20:51.207Z,11.80
2017-08-21T22:23:19.286Z,11.00
2017-08-21T22:25:47.371Z,10.80
2017-08-21T22:28:15.431Z,11.77
2017-08-21T22:30:43.506Z,10.23
2017-08-21T22:33:11.567Z,11.97
2017-08-21T22:35:39.660Z,17.33
2017-08-21T22:38:08.474Z,12.73
2017-08-21T22:40:36.548Z,9.97
2017-08-21T22:43:04.614Z,11.13
2017-08-21T22:45:32.682Z,11.37
2017-08-21T22:48:00.779Z,11.63
2017-08-21T22:50:28.844Z,11.30
2017-08-21T22:52:56.932Z,11.60
2017-08-21T22:55:25.010Z,11.27
2017-08-21T22:57:53.087Z,10.73
2017-08-21T23:00:21.400Z,10.17
2017-08-21T23:02:49.435Z,11.07
2017-08-21T23:05:17.565Z,12.07
2017-08-21T23:07:45.615Z,12.30
2017-08-21T23:10:13.693Z,12.17
2017-08-21T23:12:42.514Z,11.40
2017-08-21T23:15:10.579Z,11.93
2017-08-21T23:17:38.655Z,11.60
2017-08-21T23:20:06.743Z,11.80
2017-08-21T23:22:34.818Z,12.50
2017-08-21T23:25:02.939Z,13.00
2017-08-21T23:27:30.996Z,11.63
2017-08-21T23:29:59.082Z,10.53
2017-08-21T23:32:27.167Z,11.47
2017-08-21T23:34:55.259Z,11.63
2017-08-21T23:37:23.324Z,10.67
2017-08-21T23:39:51.392Z,10.30
2017-08-21T23:42:19.454Z,11.73
2017-08-21T23:44:47.536Z,11.40
2017-08-21T23:47:15.591Z,9.50
2017-08-21T23:49:43.684Z,11.13
2017-08-21T23:52:11.740Z,9.90
2017-08-21T23:54:39.798Z,10.70
2017-08-21T23:57:07.875Z,10.30
2017-08-21T23:59:35.963Z,11.10
